EBFN

Koksijde Air Base Airport

Koksijde, Belgium
TAF EBFN 211141Z 2113/2122 35012G22KT 9999 FEW030
Issued Valid From Valid To
Jun-21 @ 11:41 UTC
(7 hours ago)
Jun-21 @ 13:00 UTC
(5 hours ago)
Jun-21 @ 22:00 UTC
(in 4 hours)
Jun-21 @ 13:00 to Jun-21 @ 22:00
TAF EBFN 211141Z 2113/2122 35012G22KT 9999 FEW030
Wind Visibility Clouds
350° at 12 knots
 Gusting to 22 knots
10,000+ meters
  • Few at 3,000' AGL
TAF EBFN 211141Z 2113/2122 35012G22KT 9999 FEW030
Issued Jun-21 @ 11:41 UTC
(7 hours ago)
Valid From Jun-21 @ 13:00 UTC
(5 hours ago)
Valid To Jun-21 @ 22:00 UTC
(in 4 hours)
Jun-21 @ 13:00 - Jun-21 @ 22:00
Wind Visibility
350° at 12 knots
 Gusting to 22 knots
10,000+ meters
Clouds
  • Few at 3,000' AGL